createdAt,value
2019-04-14T00:01:33.050Z,29.40
2019-04-14T00:04:16.527Z,31.73
2019-04-14T00:06:46.408Z,25.43
2019-04-14T00:09:18.363Z,25.63
2019-04-14T00:11:48.314Z,28.53
2019-04-14T00:14:18.551Z,26.30
2019-04-14T00:16:48.989Z,27.17
2019-04-14T00:19:19.566Z,32.90
2019-04-14T00:21:50.077Z,29.63
2019-04-14T00:24:20.612Z,32.43
2019-04-14T00:26:51.019Z,28.23
2019-04-14T00:29:21.774Z,32.40
2019-04-14T00:31:53.728Z,29.77
2019-04-14T00:34:24.760Z,29.17
2019-04-14T00:37:05.610Z,31.97
2019-04-14T00:39:40.456Z,30.93
2019-04-14T00:42:28.146Z,31.60
2019-04-14T00:45:00.469Z,29.30
2019-04-14T00:47:33.135Z,30.10
2019-04-14T00:50:05.843Z,29.93
2019-04-14T00:52:35.723Z,30.17
2019-04-14T00:55:07.546Z,35.07
2019-04-14T00:57:37.681Z,32.60
2019-04-14T01:00:10.393Z,30.50
2019-04-14T01:02:40.736Z,33.47
2019-04-14T01:05:11.237Z,33.37
2019-04-14T01:07:41.331Z,30.47
2019-04-14T01:10:11.251Z,34.07
2019-04-14T01:12:41.043Z,32.80
2019-04-14T01:15:11.531Z,29.50
2019-04-14T01:17:41.755Z,32.17
2019-04-14T01:20:12.520Z,31.63
2019-04-14T01:22:42.519Z,30.87
2019-04-14T01:25:12.854Z,30.00
2019-04-14T01:27:42.947Z,31.67
2019-04-14T01:30:13.322Z,28.77
2019-04-14T01:32:43.664Z,27.50
2019-04-14T01:35:13.875Z,25.47
2019-04-14T01:37:44.113Z,28.47
2019-04-14T01:40:14.206Z,27.03
2019-04-14T01:42:44.266Z,29.40
2019-04-14T01:45:16.480Z,26.13
2019-04-14T01:47:46.808Z,28.53
2019-04-14T01:50:19.140Z,29.80
2019-04-14T01:52:54.437Z,29.00
2019-04-14T01:55:44.093Z,27.63
2019-04-14T01:58:16.400Z,28.97
2019-04-14T02:01:04.126Z,31.30
2019-04-14T02:03:34.522Z,29.57
2019-04-14T02:06:04.830Z,27.77
2019-04-14T02:08:35.177Z,33.13
2019-04-14T02:11:05.327Z,30.53
2019-04-14T02:13:35.429Z,30.30
2019-04-14T02:16:15.123Z,34.10
2019-04-14T02:18:38.314Z,28.03
2019-04-14T02:21:08.554Z,28.57
2019-04-14T02:23:38.688Z,30.30
2019-04-14T02:26:09.157Z,32.40
2019-04-14T02:28:39.690Z,32.27
2019-04-14T02:31:24.584Z,30.47
2019-04-14T02:34:08.176Z,31.07
2019-04-14T02:36:41.754Z,31.10
2019-04-14T02:39:17.630Z,32.80
2019-04-14T02:41:49.242Z,29.67
2019-04-14T02:44:30.276Z,36.50
2019-04-14T02:49:14.339Z,30.63
2019-04-14T02:51:49.765Z,36.63
2019-04-14T02:54:23.147Z,37.17
2019-04-14T02:56:52.944Z,37.40
2019-04-14T02:59:22.824Z,35.20
2019-04-14T03:02:09.685Z,35.83
2019-04-14T03:04:31.101Z,38.30
2019-04-14T03:06:56.350Z,41.33
2019-04-14T03:09:36.375Z,35.53
2019-04-14T03:12:00.732Z,37.53
2019-04-14T03:14:30.730Z,37.33
2019-04-14T03:19:59.166Z,40.93
2019-04-14T03:22:33.073Z,36.57
2019-04-14T03:24:42.223Z,45.47
2019-04-14T03:27:36.066Z,42.83
2019-04-14T03:30:38.868Z,36.77
2019-04-14T03:37:53.958Z,43.80
2019-04-14T03:40:28.066Z,39.17
2019-04-14T03:42:54.194Z,46.73
2019-04-14T03:45:39.367Z,37.47
2019-04-14T03:48:31.537Z,37.83
2019-04-14T03:50:28.154Z,51.97
2019-04-14T03:53:05.941Z,37.30
2019-04-14T03:55:20.311Z,39.37
2019-04-14T03:57:39.108Z,41.43
2019-04-14T04:00:09.597Z,42.40
2019-04-14T04:02:40.206Z,35.90
2019-04-14T04:05:10.714Z,41.33
2019-04-14T04:07:41.108Z,33.60
2019-04-14T04:10:13.639Z,39.17
2019-04-14T04:12:44.374Z,39.93
2019-04-14T04:15:14.965Z,39.07
2019-04-14T04:17:47.293Z,46.60
2019-04-14T04:20:21.783Z,40.97
2019-04-14T04:22:54.341Z,40.87
2019-04-14T04:25:26.844Z,36.23
2019-04-14T04:27:59.094Z,35.03
2019-04-14T04:30:36.317Z,43.63
2019-04-14T04:33:17.629Z,37.60
2019-04-14T04:35:52.278Z,39.13
2019-04-14T04:38:29.817Z,36.87
2019-04-14T04:40:59.573Z,45.73
2019-04-14T04:43:29.770Z,41.83
2019-04-14T04:46:00.606Z,40.00
2019-04-14T04:48:30.737Z,42.03
2019-04-14T04:51:00.715Z,38.20
2019-04-14T04:53:30.948Z,39.10
2019-04-14T04:56:01.475Z,35.07
2019-04-14T04:58:32.652Z,36.50
2019-04-14T05:01:03.531Z,41.87
2019-04-14T05:03:33.985Z,40.07
2019-04-14T05:06:30.833Z,42.50
2019-04-14T05:09:14.488Z,34.83
2019-04-14T05:11:52.143Z,32.67
2019-04-14T05:14:24.819Z,35.73
2019-04-14T05:16:54.972Z,36.50
2019-04-14T05:19:30.354Z,31.30
2019-04-14T05:21:56.274Z,31.40
2019-04-14T05:24:26.873Z,30.70
2019-04-14T05:26:57.105Z,32.50
2019-04-14T05:29:27.552Z,31.23
2019-04-14T05:31:57.694Z,29.03
2019-04-14T05:34:28.345Z,28.43
2019-04-14T05:36:58.508Z,28.83
2019-04-14T05:39:28.556Z,24.07
2019-04-14T05:42:06.590Z,23.53
2019-04-14T05:44:30.041Z,25.87
2019-04-14T05:47:00.086Z,20.23
2019-04-14T05:49:38.161Z,26.33
2019-04-14T05:52:01.395Z,24.43
2019-04-14T05:54:31.738Z,20.70
2019-04-14T05:57:02.337Z,22.33
2019-04-14T05:59:32.909Z,23.87
2019-04-14T06:02:02.895Z,25.43
2019-04-14T06:04:33.166Z,24.80
2019-04-14T06:07:05.939Z,23.97
2019-04-14T06:09:35.765Z,19.60
2019-04-14T06:12:05.633Z,23.73
2019-04-14T06:14:35.434Z,20.77
2019-04-14T06:17:05.297Z,20.10
2019-04-14T06:19:37.981Z,23.90
2019-04-14T06:22:06.544Z,22.83
2019-04-14T06:24:36.333Z,21.93
2019-04-14T06:27:06.198Z,22.00
2019-04-14T06:29:35.944Z,22.60
2019-04-14T06:32:23.727Z,19.57
2019-04-14T06:38:08.223Z,20.27
2019-04-14T06:40:39.601Z,21.30
2019-04-14T06:43:11.636Z,21.20
2019-04-14T06:45:40.980Z,19.80
2019-04-14T06:48:11.142Z,17.93
2019-04-14T06:50:41.045Z,19.30
2019-04-14T06:53:11.068Z,18.47
2019-04-14T06:55:41.023Z,16.07
2019-04-14T06:58:11.011Z,18.30
2019-04-14T07:00:40.804Z,19.67
2019-04-14T07:03:10.533Z,19.27
2019-04-14T07:05:40.307Z,18.77
2019-04-14T07:08:10.085Z,18.90
2019-04-14T07:10:39.872Z,22.40
2019-04-14T07:13:13.793Z,19.93
2019-04-14T07:15:47.365Z,17.50
2019-04-14T07:18:17.243Z,18.97
2019-04-14T07:20:47.029Z,16.47
2019-04-14T07:23:16.765Z,15.43
2019-04-14T07:25:46.563Z,16.13
2019-04-14T07:28:16.301Z,19.40
2019-04-14T07:30:53.649Z,17.43
2019-04-14T07:33:37.074Z,16.47
2019-04-14T07:36:10.919Z,18.80
2019-04-14T07:38:44.813Z,16.40
2019-04-14T07:41:28.383Z,16.30
2019-04-14T07:43:59.817Z,16.67
2019-04-14T07:46:33.886Z,15.17
2019-04-14T07:49:21.272Z,19.83
2019-04-14T07:52:09.383Z,17.07
2019-04-14T07:54:43.564Z,15.93
2019-04-14T07:57:14.936Z,17.53
2019-04-14T07:59:52.245Z,16.53
2019-04-14T08:02:29.487Z,16.03
2019-04-14T08:05:06.573Z,16.40
2019-04-14T08:07:36.359Z,16.50
2019-04-14T08:10:07.937Z,17.47
2019-04-14T08:12:37.735Z,17.20
2019-04-14T08:15:07.609Z,15.67
2019-04-14T08:17:37.442Z,17.23
2019-04-14T08:20:08.048Z,16.77
2019-04-14T08:22:37.877Z,16.03
2019-04-14T08:25:07.819Z,15.27
2019-04-14T08:27:37.542Z,19.60
2019-04-14T08:30:08.806Z,16.17
2019-04-14T08:32:38.614Z,16.27
2019-04-14T08:35:08.555Z,18.93
2019-04-14T08:37:38.261Z,15.97
2019-04-14T08:40:08.130Z,17.47
2019-04-14T08:42:39.533Z,17.77
2019-04-14T08:45:20.839Z,18.70
2019-04-14T08:47:58.509Z,17.13
2019-04-14T08:50:39.010Z,17.00
2019-04-14T08:53:05.740Z,13.90
2019-04-14T08:55:37.154Z,17.90
2019-04-14T08:58:10.946Z,18.50
2019-04-14T09:00:51.481Z,17.53
2019-04-14T09:03:25.552Z,17.93
2019-04-14T09:05:59.582Z,17.10
2019-04-14T09:08:33.827Z,17.87
2019-04-14T09:11:08.011Z,17.90
2019-04-14T09:13:37.721Z,18.03
2019-04-14T09:16:07.419Z,19.50
2019-04-14T09:18:37.241Z,16.00
2019-04-14T09:21:07.014Z,17.83
2019-04-14T09:23:36.726Z,16.60
2019-04-14T09:26:06.448Z,18.43
2019-04-14T09:28:36.146Z,17.23
2019-04-14T09:31:05.936Z,19.33
2019-04-14T09:33:35.836Z,20.83
2019-04-14T09:36:05.723Z,18.73
2019-04-14T09:38:35.488Z,15.77
2019-04-14T09:41:05.410Z,18.53
2019-04-14T09:43:35.224Z,18.33
2019-04-14T09:46:05.114Z,17.50
2019-04-14T09:48:34.862Z,17.43
2019-04-14T09:51:05.362Z,16.77
2019-04-14T09:53:35.301Z,17.70
2019-04-14T09:56:05.162Z,15.77
2019-04-14T09:58:35.228Z,17.10
2019-04-14T10:01:05.120Z,15.87
2019-04-14T10:03:34.928Z,18.43
2019-04-14T10:06:04.706Z,19.77
2019-04-14T10:08:34.665Z,17.77
2019-04-14T10:11:04.575Z,20.43
2019-04-14T10:13:34.365Z,18.20
2019-04-14T10:16:04.138Z,19.73
2019-04-14T10:18:33.950Z,21.33
2019-04-14T10:21:03.795Z,20.70
2019-04-14T10:23:33.529Z,21.00
2019-04-14T10:26:03.396Z,18.73
2019-04-14T10:28:33.141Z,16.57
2019-04-14T10:31:02.939Z,17.07
2019-04-14T10:33:32.678Z,15.90
2019-04-14T10:36:02.492Z,16.43
2019-04-14T10:38:32.159Z,17.13
2019-04-14T10:41:01.909Z,18.60
2019-04-14T10:43:31.664Z,17.83
2019-04-14T10:46:01.537Z,16.83
2019-04-14T10:48:31.376Z,16.47
2019-04-14T10:51:02.193Z,16.40
2019-04-14T10:53:32.083Z,16.17
2019-04-14T10:56:01.871Z,16.03
2019-04-14T10:58:36.292Z,14.80
2019-04-14T11:01:08.928Z,17.20
2019-04-14T11:03:40.912Z,15.47
2019-04-14T11:06:19.817Z,14.70
2019-04-14T11:08:51.294Z,13.70
2019-04-14T11:11:21.474Z,14.67
2019-04-14T11:13:51.302Z,14.23
2019-04-14T11:16:21.503Z,14.77
2019-04-14T11:18:51.637Z,13.33
2019-04-14T11:21:21.379Z,17.27
2019-04-14T11:23:51.211Z,12.83
2019-04-14T11:26:21.065Z,14.07
2019-04-14T11:28:50.854Z,14.63
2019-04-14T11:31:39.696Z,12.33
2019-04-14T11:34:11.620Z,13.27
2019-04-14T11:36:43.696Z,14.47
2019-04-14T11:39:15.658Z,14.10
2019-04-14T11:41:45.590Z,13.97
2019-04-14T11:44:15.744Z,14.17
2019-04-14T11:46:45.708Z,12.67
2019-04-14T11:49:16.032Z,12.17
2019-04-14T11:51:55.306Z,12.97
2019-04-14T11:54:17.328Z,14.83
2019-04-14T11:56:47.415Z,14.03
2019-04-14T11:59:18.749Z,13.70
2019-04-14T12:01:53.205Z,12.33
2019-04-14T12:04:24.617Z,14.37
2019-04-14T12:06:58.716Z,14.30
2019-04-14T12:09:30.222Z,12.53
2019-04-14T12:12:00.000Z,14.07
2019-04-14T12:14:30.060Z,13.10
2019-04-14T12:16:59.846Z,13.43
2019-04-14T12:19:29.645Z,12.40
2019-04-14T12:22:08.262Z,11.77
2019-04-14T12:24:30.878Z,14.57
2019-04-14T12:27:00.798Z,13.03
2019-04-14T12:29:30.645Z,14.67
2019-04-14T12:32:01.773Z,13.83
2019-04-14T12:34:31.646Z,14.13
2019-04-14T12:37:01.484Z,14.27
2019-04-14T12:39:31.259Z,14.17
2019-04-14T12:42:19.156Z,15.57
2019-04-14T12:45:02.460Z,12.27
2019-04-14T12:47:42.705Z,12.33
2019-04-14T12:50:20.296Z,16.47
2019-04-14T12:52:50.149Z,13.50
2019-04-14T12:55:19.914Z,15.40
2019-04-14T12:57:51.341Z,14.70
2019-04-14T13:00:34.888Z,13.80
2019-04-14T13:03:04.831Z,14.47
2019-04-14T13:05:34.712Z,15.00
2019-04-14T13:08:05.075Z,16.70
2019-04-14T13:10:35.018Z,13.17
2019-04-14T13:13:04.975Z,14.00
2019-04-14T13:15:34.787Z,19.60
2019-04-14T13:18:04.660Z,13.93
2019-04-14T13:20:34.547Z,13.50
2019-04-14T13:23:04.395Z,12.87
2019-04-14T13:25:34.174Z,16.50
2019-04-14T13:28:04.972Z,12.37
2019-04-14T13:30:36.333Z,14.27
2019-04-14T13:33:06.208Z,15.23
2019-04-14T13:35:35.958Z,13.37
2019-04-14T13:38:05.827Z,12.90
2019-04-14T13:40:35.540Z,10.60
2019-04-14T13:43:05.696Z,14.70
2019-04-14T13:45:35.454Z,11.00
2019-04-14T13:48:05.265Z,12.90
2019-04-14T13:50:35.029Z,14.93
2019-04-14T13:53:14.312Z,14.77
2019-04-14T13:55:44.133Z,13.93
2019-04-14T13:58:15.440Z,13.10
2019-04-14T14:00:46.258Z,13.33
2019-04-14T14:03:17.689Z,14.83
2019-04-14T14:05:48.725Z,13.40
2019-04-14T14:08:19.697Z,16.73
2019-04-14T14:10:52.965Z,12.90
2019-04-14T14:13:41.813Z,15.53
2019-04-14T14:16:20.160Z,13.20
2019-04-14T14:18:52.384Z,15.23
2019-04-14T14:21:43.235Z,16.40
2019-04-14T14:24:25.615Z,14.73
2019-04-14T14:26:57.946Z,14.57
2019-04-14T14:29:28.573Z,14.33
2019-04-14T14:31:59.401Z,14.27
2019-04-14T14:34:29.800Z,12.73
2019-04-14T14:36:59.624Z,15.13
2019-04-14T14:39:29.651Z,14.83
2019-04-14T14:41:59.354Z,12.27
2019-04-14T14:44:30.878Z,12.13
2019-04-14T14:47:05.211Z,12.10
2019-04-14T14:49:36.669Z,12.10
2019-04-14T14:52:20.176Z,12.63
2019-04-14T14:54:50.338Z,11.40
2019-04-14T14:57:20.827Z,12.40
2019-04-14T14:59:50.652Z,12.80
2019-04-14T15:02:21.143Z,11.63
2019-04-14T15:04:51.251Z,8.97
2019-04-14T15:07:20.939Z,8.10
2019-04-14T15:09:50.775Z,7.23
2019-04-14T15:12:21.202Z,9.60
2019-04-14T15:14:52.283Z,8.77
2019-04-14T15:17:24.389Z,8.50
2019-04-14T15:19:56.308Z,8.23
2019-04-14T15:22:26.250Z,10.57
2019-04-14T15:24:55.931Z,9.80
2019-04-14T15:27:25.795Z,8.20
2019-04-14T15:29:55.479Z,9.97
2019-04-14T15:32:25.421Z,9.03
2019-04-14T15:34:55.267Z,8.07
2019-04-14T15:37:28.287Z,8.17
2019-04-14T15:39:58.980Z,9.57
2019-04-14T15:42:28.937Z,8.73
2019-04-14T15:44:58.646Z,9.97
2019-04-14T15:47:28.625Z,10.57
2019-04-14T15:49:58.429Z,9.87
2019-04-14T15:52:28.240Z,9.53
2019-04-14T15:54:57.954Z,9.53
2019-04-14T15:57:36.576Z,12.30
2019-04-14T16:00:15.369Z,10.43
2019-04-14T16:02:47.002Z,9.67
2019-04-14T16:05:21.381Z,10.20
2019-04-14T16:08:09.042Z,8.83
2019-04-14T16:10:43.951Z,10.13
2019-04-14T16:13:18.432Z,11.40
2019-04-14T16:15:52.520Z,11.27
2019-04-14T16:18:40.141Z,10.20
2019-04-14T16:21:09.924Z,11.10
2019-04-14T16:23:50.023Z,10.60
2019-04-14T16:26:24.655Z,10.47
2019-04-14T16:29:02.720Z,12.23
2019-04-14T16:31:50.619Z,13.47
2019-04-14T16:34:22.080Z,11.53
2019-04-14T16:36:52.932Z,14.67
2019-04-14T16:39:22.946Z,14.00
2019-04-14T16:41:53.063Z,14.07
2019-04-14T16:44:23.036Z,14.30
2019-04-14T16:46:52.897Z,13.03
2019-04-14T16:49:22.681Z,15.10
2019-04-14T16:51:57.162Z,15.43
2019-04-14T16:54:40.813Z,16.00
2019-04-14T16:57:29.063Z,14.33
2019-04-14T16:59:58.821Z,17.17
2019-04-14T17:02:29.932Z,16.27
2019-04-14T17:04:59.648Z,14.87
2019-04-14T17:07:29.382Z,16.27
2019-04-14T17:09:59.430Z,20.53
2019-04-14T17:12:29.171Z,19.50
2019-04-14T17:15:02.629Z,20.17
2019-04-14T17:17:50.556Z,20.03
2019-04-14T17:20:25.176Z,19.03
2019-04-14T17:22:56.779Z,20.13
2019-04-14T17:25:28.145Z,18.40
2019-04-14T17:28:08.924Z,21.40
2019-04-14T17:31:02.483Z,18.97
2019-04-14T17:33:46.588Z,19.23
2019-04-14T17:36:34.081Z,18.97
2019-04-14T17:39:13.071Z,20.10
2019-04-14T17:41:48.955Z,21.07
2019-04-14T17:44:24.251Z,20.73
2019-04-14T17:46:58.691Z,20.57
2019-04-14T17:49:39.162Z,23.63
2019-04-14T17:52:28.847Z,21.63
2019-04-14T17:55:01.681Z,23.30
2019-04-14T17:57:34.689Z,22.10
2019-04-14T18:00:10.828Z,23.97
2019-04-14T18:02:42.382Z,22.83
2019-04-14T18:05:14.857Z,22.47
2019-04-14T18:07:46.234Z,22.23
2019-04-14T18:10:24.761Z,23.37
2019-04-14T18:12:59.314Z,20.53
2019-04-14T18:15:33.262Z,23.07
2019-04-14T18:18:24.843Z,21.57
2019-04-14T18:21:03.129Z,24.20
2019-04-14T18:23:35.036Z,21.83
2019-04-14T18:26:06.100Z,23.43
2019-04-14T18:28:46.710Z,21.90
2019-04-14T18:31:21.116Z,22.17
2019-04-14T18:33:55.476Z,24.60
2019-04-14T18:36:29.728Z,24.03
2019-04-14T18:39:23.661Z,23.73
2019-04-14T18:42:13.384Z,21.03
2019-04-14T18:44:51.783Z,22.33
2019-04-14T18:47:33.445Z,26.27
2019-04-14T18:50:14.476Z,23.70
2019-04-14T18:52:54.974Z,26.50
2019-04-14T18:55:29.111Z,24.90
2019-04-14T18:58:12.206Z,27.13
2019-04-14T19:00:55.638Z,26.13
2019-04-14T19:03:25.422Z,23.13
2019-04-14T19:05:55.221Z,23.77
2019-04-14T19:08:25.060Z,23.57
2019-04-14T19:11:14.756Z,23.00
2019-04-14T19:13:46.236Z,25.13
2019-04-14T19:16:17.678Z,21.90
2019-04-14T19:18:49.263Z,24.53
2019-04-14T19:21:20.796Z,20.67
2019-04-14T19:23:53.785Z,21.70
2019-04-14T19:26:23.668Z,21.83
2019-04-14T19:28:53.469Z,23.23
2019-04-14T19:31:23.503Z,22.33
2019-04-14T19:33:57.254Z,28.17
2019-04-14T19:36:27.053Z,23.50
2019-04-14T19:38:57.124Z,20.53
2019-04-14T19:41:29.311Z,25.50
2019-04-14T19:43:59.049Z,24.93
2019-04-14T19:46:29.558Z,24.90
2019-04-14T19:49:04.670Z,26.10
2019-04-14T19:51:38.843Z,25.13
2019-04-14T19:54:10.437Z,24.43
2019-04-14T19:56:48.543Z,24.37
2019-04-14T19:59:25.957Z,24.63
2019-04-14T20:01:56.077Z,23.87
2019-04-14T20:04:34.661Z,24.87
2019-04-14T20:07:08.216Z,26.63
2019-04-14T20:09:43.036Z,26.97
2019-04-14T20:12:13.359Z,25.63
2019-04-14T20:14:44.696Z,24.33
2019-04-14T20:17:24.408Z,23.30
2019-04-14T20:20:04.944Z,25.50
2019-04-14T20:22:43.443Z,24.53
2019-04-14T20:25:33.130Z,22.07
2019-04-14T20:28:00.995Z,25.63
2019-04-14T20:30:36.328Z,24.00
2019-04-14T20:33:11.197Z,25.73
2019-04-14T20:35:54.456Z,27.93
2019-04-14T20:38:17.589Z,27.53
2019-04-14T20:40:50.896Z,25.90
2019-04-14T20:43:22.659Z,27.93
2019-04-14T20:45:52.826Z,22.93
2019-04-14T20:48:23.012Z,26.80
2019-04-14T20:50:53.150Z,25.77
2019-04-14T20:53:32.012Z,22.93
2019-04-14T20:56:02.094Z,25.33
2019-04-14T20:58:31.978Z,25.93
2019-04-14T21:01:01.821Z,25.47
2019-04-14T21:03:50.002Z,26.00
2019-04-14T21:06:30.399Z,24.17
2019-04-14T21:09:16.914Z,27.87
2019-04-14T21:11:51.432Z,25.60
2019-04-14T21:14:31.866Z,25.00
2019-04-14T21:17:03.306Z,25.70
2019-04-14T21:19:37.445Z,29.47
2019-04-14T21:22:08.944Z,26.23
2019-04-14T21:24:46.084Z,26.27
2019-04-14T21:27:32.934Z,30.93
2019-04-14T21:30:04.557Z,30.30
2019-04-14T21:32:38.807Z,27.10
2019-04-14T21:35:16.210Z,28.97
2019-04-14T21:37:53.526Z,28.57
2019-04-14T21:40:31.725Z,27.27
2019-04-14T21:43:01.777Z,29.23
2019-04-14T21:45:31.534Z,27.47
2019-04-14T21:48:01.263Z,29.97
2019-04-14T21:50:34.148Z,29.47
2019-04-14T21:53:05.346Z,26.60
2019-04-14T21:55:37.292Z,24.70
2019-04-14T21:58:17.772Z,26.50
2019-04-14T22:01:11.277Z,25.57
2019-04-14T22:03:45.835Z,29.60
2019-04-14T22:06:32.070Z,27.23
2019-04-14T22:09:01.893Z,30.50
2019-04-14T22:11:31.592Z,27.73
2019-04-14T22:14:01.453Z,28.77
2019-04-14T22:16:31.275Z,28.00
2019-04-14T22:19:01.064Z,28.93
2019-04-14T22:21:30.858Z,31.57
2019-04-14T22:24:02.254Z,29.17
2019-04-14T22:26:32.359Z,31.90
2019-04-14T22:29:02.790Z,31.67
2019-04-14T22:31:32.592Z,27.87
2019-04-14T22:34:02.426Z,28.03
2019-04-14T22:36:32.354Z,30.50
2019-04-14T22:39:02.191Z,31.13
2019-04-14T22:41:31.962Z,32.20
2019-04-14T22:44:01.932Z,32.17
2019-04-14T22:46:31.953Z,33.07
2019-04-14T22:49:01.659Z,30.10
2019-04-14T22:51:31.555Z,31.57
2019-04-14T22:54:01.388Z,30.77
2019-04-14T22:56:39.089Z,32.43
2019-04-14T22:59:02.796Z,29.53
2019-04-14T23:01:37.316Z,31.13
2019-04-14T23:04:25.007Z,33.17
2019-04-14T23:07:14.684Z,32.57
2019-04-14T23:09:48.790Z,32.17
2019-04-14T23:12:20.189Z,32.07
2019-04-14T23:14:57.625Z,32.33
2019-04-14T23:17:32.117Z,31.97
2019-04-14T23:20:18.555Z,34.20
2019-04-14T23:23:05.877Z,33.57
2019-04-14T23:25:35.819Z,31.60
2019-04-14T23:28:05.703Z,30.40
2019-04-14T23:30:35.477Z,33.07
2019-04-14T23:33:05.370Z,31.77
2019-04-14T23:35:35.167Z,34.03
2019-04-14T23:38:05.037Z,30.97
2019-04-14T23:40:34.818Z,31.93
2019-04-14T23:43:04.601Z,31.43
2019-04-14T23:45:34.325Z,35.57
2019-04-14T23:48:04.142Z,31.60
2019-04-14T23:50:33.809Z,31.30
2019-04-14T23:53:03.729Z,32.57
2019-04-14T23:55:33.512Z,33.57
2019-04-14T23:58:03.288Z,32.23
